Waco, TX (76711)

01:05 CDT le 21 septembre 2014 (GMT -0500)
Loop 340 | Change Station
CLOSE
Current Station
Stations météorologiques personnelles
Location: Robinson, TX
Altitude: 525 ft
Stations météo à proximité

Alt. 525 ft 31.49 °N, 97.13 °W | Updated 5 seconds ago

Ciel dégagé
Ciel dégagé
73.0 ° F
Paraît 72 ° F
N
0.0
Vent Variable Vent de Ouest
Gusts 0.0 mph

Aujourd'hui
Haut(e) -- | Bas -- ° F
--% Risque de précip.
Hier
Haut(e) -- | Bas -- ° F
Precip. -- pouce
7:16 AM 7:26 PM
Lune descendante, 8% visible
Pression 30.00 pouce
Visibilité 10.0 Miles terrestres
Nuages Ciel dégagé
indice de chaleur 72 ° F
Point de rosée 68 ° F
Humidité 85%
Précipitations 0.00 pouce
Profondeur de la couche neigeuse Non disponible.
UV 0 sur 12
Pollen 10.00 sur 12
PM2.5 Bon
Flu Activity Non disponible.
METAR KACT 210551Z 36003KT 10SM CLR 22/19 A3002 RMK AO2 SLP157 T02170194 10300 20217 403280217 51009 $

More Conditions Fewer Conditions

Pression 30.00 pouce
Visibilité 10.0 Miles terrestres
Nuages Ciel dégagé
indice de chaleur 72 ° F
Point de rosée 68 ° F
Humidité 85%
Précipitations 0.00 pouce
Profondeur de la couche neigeuse Non disponible.
UV 0 sur 12
Pollen 10.00 sur 12
PM2.5 Bon
Flu Activity Non disponible.
METAR KACT 210551Z 36003KT 10SM CLR 22/19 A3002 RMK AO2 SLP157 T02170194 10300 20217 403280217 51009 $

More Conditions Fewer Conditions

10-Day Weather Forecast

Almanac

Astronomie

Sep. 21, 2014 Lever Coucher
Temps réel 07:16 CDT 19:26 CDT
Crépuscule civil 06:52 CDT 19:50 CDT
Crépuscule nautique 06:23 CDT 20:19 CDT
Crépuscule astronomique 05:55 CDT 20:47 CDT
Lune 04:58 CDT 17:57 CDT
Durée de lumière visible 12h 58m
Longueur du jour
12h 10m
Tomorrow will be 1m 54s shorter.
Lune descendante, 8% of the Moon is Illuminated
Aujourd'hui
Lune descendante
Sep 24
Nouveau
Oct 1
Premier quartier
Oct 8
Pleine lune
Oct 15
Dernier quartier

Extrêmes aujourd'hui

State Highs State Lows

Community

WunderPhotos

Upload Photos

1,755,098 Photos téléchargées !

Nearby

Qualité de l'air

  Qualité de l'air Indice de la qualité de l'air Polluant
Hier Bon
OZONE
Hier Bon
PM2.5
Actuel Bon
PM2.5
samedi Bon
PM10
samedi Bon
OZONE
dimanche Bon
PM10
dimanche Bon
OZONE
lundi Moyen
OZONE
lundi Bon
PM10
mardi Moyen
OZONE
mardi Bon
PM10

Épaisseur de neige

Station Depth Altitude
Pas de nouvelles chutes de neige

Activité sismique

Ville Distance Mag. Time & Date
No recent earthquake activity has been reported nearby.
Minimum magnitude displayed is 2.5.

Températures des eaux côtières

Lieu Température
Aucun rapport de station

Stations météo à proximité